sensor_id;sensor_type;location;lat;lon;timestamp;temperature;humidity
54409;DHT22;40315;48.620;9.828;2023-05-07T00:01:42;12.50;99.90
54409;DHT22;40315;48.620;9.828;2023-05-07T00:04:09;12.50;99.90
54409;DHT22;40315;48.620;9.828;2023-05-07T00:06:36;12.40;99.90
54409;DHT22;40315;48.620;9.828;2023-05-07T00:09:05;12.30;99.90
54409;DHT22;40315;48.620;9.828;2023-05-07T00:11:34;12.40;99.90
54409;DHT22;40315;48.620;9.828;2023-05-07T00:14:04;12.40;99.90
54409;DHT22;40315;48.620;9.828;2023-05-07T00:16:31;12.50;99.90
54409;DHT22;40315;48.620;9.828;2023-05-07T00:19:00;12.40;99.90
54409;DHT22;40315;48.620;9.828;2023-05-07T00:21:27;12.50;99.90
54409;DHT22;40315;48.620;9.828;2023-05-07T00:23:54;12.50;99.90
54409;DHT22;40315;48.620;9.828;2023-05-07T00:26:23;12.40;99.90
54409;DHT22;40315;48.620;9.828;2023-05-07T00:28:51;12.30;99.90
54409;DHT22;40315;48.620;9.828;2023-05-07T00:31:18;12.20;99.90
54409;DHT22;40315;48.620;9.828;2023-05-07T00:33:47;12.10;99.90
54409;DHT22;40315;48.620;9.828;2023-05-07T00:36:14;12.10;99.90
54409;DHT22;40315;48.620;9.828;2023-05-07T00:38:41;12.10;99.90
54409;DHT22;40315;48.620;9.828;2023-05-07T00:41:08;12.00;99.90
54409;DHT22;40315;48.620;9.828;2023-05-07T00:43:37;12.00;99.90
54409;DHT22;40315;48.620;9.828;2023-05-07T00:46:04;12.00;99.90
54409;DHT22;40315;48.620;9.828;2023-05-07T00:48:31;11.90;99.90
54409;DHT22;40315;48.620;9.828;2023-05-07T00:50:58;12.00;99.90
54409;DHT22;40315;48.620;9.828;2023-05-07T00:53:28;12.00;99.90
54409;DHT22;40315;48.620;9.828;2023-05-07T00:55:56;12.00;99.90
54409;DHT22;40315;48.620;9.828;2023-05-07T00:58:23;11.90;99.90
54409;DHT22;40315;48.620;9.828;2023-05-07T01:03:34;11.80;99.90
54409;DHT22;40315;48.620;9.828;2023-05-07T01:06:02;11.80;99.90
54409;DHT22;40315;48.620;9.828;2023-05-07T01:08:32;11.80;99.90
54409;DHT22;40315;48.620;9.828;2023-05-07T01:11:00;11.70;99.90
54409;DHT22;40315;48.620;9.828;2023-05-07T01:13:28;11.70;99.90
54409;DHT22;40315;48.620;9.828;2023-05-07T01:15:56;11.70;99.90
54409;DHT22;40315;48.620;9.828;2023-05-07T01:18:23;10.50;99.90
54409;DHT22;40315;48.620;9.828;2023-05-07T01:20:53;11.60;99.90
54409;DHT22;40315;48.620;9.828;2023-05-07T01:23:23;11.60;99.90
54409;DHT22;40315;48.620;9.828;2023-05-07T01:25:53;11.60;99.90
54409;DHT22;40315;48.620;9.828;2023-05-07T01:28:22;11.50;99.90
54409;DHT22;40315;48.620;9.828;2023-05-07T01:30:52;11.60;99.90
54409;DHT22;40315;48.620;9.828;2023-05-07T01:33:24;11.70;99.90
54409;DHT22;40315;48.620;9.828;2023-05-07T01:35:53;11.60;99.90
54409;DHT22;40315;48.620;9.828;2023-05-07T01:38:24;11.60;99.90
54409;DHT22;40315;48.620;9.828;2023-05-07T01:40:51;11.50;99.90
54409;DHT22;40315;48.620;9.828;2023-05-07T01:43:19;11.50;99.90
54409;DHT22;40315;48.620;9.828;2023-05-07T01:45:49;11.60;99.90
54409;DHT22;40315;48.620;9.828;2023-05-07T01:51:59;11.50;99.90
54409;DHT22;40315;48.620;9.828;2023-05-07T01:54:28;11.50;99.90
54409;DHT22;40315;48.620;9.828;2023-05-07T01:56:56;11.40;99.90
54409;DHT22;40315;48.620;9.828;2023-05-07T01:59:23;11.40;99.90
54409;DHT22;40315;48.620;9.828;2023-05-07T02:01:50;11.30;99.90
54409;DHT22;40315;48.620;9.828;2023-05-07T02:04:19;11.20;99.90
54409;DHT22;40315;48.620;9.828;2023-05-07T02:06:48;11.20;99.90
54409;DHT22;40315;48.620;9.828;2023-05-07T02:09:16;11.10;99.90
54409;DHT22;40315;48.620;9.828;2023-05-07T02:11:46;11.10;99.90
54409;DHT22;40315;48.620;9.828;2023-05-07T02:14:16;11.40;99.90
54409;DHT22;40315;48.620;9.828;2023-05-07T02:16:43;11.10;99.90
54409;DHT22;40315;48.620;9.828;2023-05-07T02:19:14;11.10;99.90
54409;DHT22;40315;48.620;9.828;2023-05-07T02:21:44;11.10;99.90
54409;DHT22;40315;48.620;9.828;2023-05-07T02:24:14;11.20;99.90
54409;DHT22;40315;48.620;9.828;2023-05-07T02:26:43;11.20;99.90
54409;DHT22;40315;48.620;9.828;2023-05-07T02:29:12;11.20;99.90
54409;DHT22;40315;48.620;9.828;2023-05-07T02:31:41;11.20;99.90
54409;DHT22;40315;48.620;9.828;2023-05-07T02:34:08;11.20;99.90
54409;DHT22;40315;48.620;9.828;2023-05-07T02:36:35;11.10;99.90
54409;DHT22;40315;48.620;9.828;2023-05-07T02:39:08;11.10;99.90
54409;DHT22;40315;48.620;9.828;2023-05-07T02:41:35;11.00;99.90
54409;DHT22;40315;48.620;9.828;2023-05-07T02:44:02;11.10;99.90
54409;DHT22;40315;48.620;9.828;2023-05-07T02:46:34;11.00;99.90
54409;DHT22;40315;48.620;9.828;2023-05-07T02:49:06;10.90;99.90
54409;DHT22;40315;48.620;9.828;2023-05-07T02:51:33;10.90;99.90
54409;DHT22;40315;48.620;9.828;2023-05-07T02:54:03;10.90;99.90
54409;DHT22;40315;48.620;9.828;2023-05-07T02:56:32;11.00;99.90
54409;DHT22;40315;48.620;9.828;2023-05-07T02:58:59;11.00;99.90
54409;DHT22;40315;48.620;9.828;2023-05-07T03:01:30;11.00;99.90
54409;DHT22;40315;48.620;9.828;2023-05-07T03:04:04;11.00;99.90
54409;DHT22;40315;48.620;9.828;2023-05-07T03:06:31;11.00;99.90
54409;DHT22;40315;48.620;9.828;2023-05-07T03:08:58;11.00;99.90
54409;DHT22;40315;48.620;9.828;2023-05-07T03:11:25;11.10;99.90
54409;DHT22;40315;48.620;9.828;2023-05-07T03:13:52;11.30;99.90
54409;DHT22;40315;48.620;9.828;2023-05-07T03:16:20;11.20;99.90
54409;DHT22;40315;48.620;9.828;2023-05-07T03:18:47;11.10;99.90
54409;DHT22;40315;48.620;9.828;2023-05-07T03:21:16;10.90;99.90
54409;DHT22;40315;48.620;9.828;2023-05-07T03:23:45;10.90;99.90
54409;DHT22;40315;48.620;9.828;2023-05-07T03:26:12;10.90;99.90
54409;DHT22;40315;48.620;9.828;2023-05-07T03:28:40;10.80;99.90
54409;DHT22;40315;48.620;9.828;2023-05-07T03:31:11;10.80;99.90
54409;DHT22;40315;48.620;9.828;2023-05-07T03:33:49;10.80;99.90
54409;DHT22;40315;48.620;9.828;2023-05-07T03:36:18;10.80;99.90
54409;DHT22;40315;48.620;9.828;2023-05-07T03:38:46;10.80;99.90
54409;DHT22;40315;48.620;9.828;2023-05-07T03:41:16;10.80;99.90
54409;DHT22;40315;48.620;9.828;2023-05-07T03:43:45;10.90;99.90
54409;DHT22;40315;48.620;9.828;2023-05-07T03:46:12;10.90;99.90
54409;DHT22;40315;48.620;9.828;2023-05-07T03:48:40;10.80;99.90
54409;DHT22;40315;48.620;9.828;2023-05-07T03:51:08;10.80;99.90
54409;DHT22;40315;48.620;9.828;2023-05-07T03:53:37;10.80;99.90
54409;DHT22;40315;48.620;9.828;2023-05-07T03:56:04;10.80;99.90
54409;DHT22;40315;48.620;9.828;2023-05-07T03:58:35;10.70;99.90
54409;DHT22;40315;48.620;9.828;2023-05-07T04:01:07;10.70;99.90
54409;DHT22;40315;48.620;9.828;2023-05-07T04:03:34;10.70;99.90
54409;DHT22;40315;48.620;9.828;2023-05-07T04:06:01;10.60;99.90
54409;DHT22;40315;48.620;9.828;2023-05-07T04:08:30;10.60;99.90
54409;DHT22;40315;48.620;9.828;2023-05-07T04:10:59;10.60;99.90
54409;DHT22;40315;48.620;9.828;2023-05-07T04:13:29;10.60;99.90
54409;DHT22;40315;48.620;9.828;2023-05-07T04:16:01;10.50;99.90
54409;DHT22;40315;48.620;9.828;2023-05-07T04:18:29;10.50;99.90
54409;DHT22;40315;48.620;9.828;2023-05-07T04:20:56;10.50;99.90
54409;DHT22;40315;48.620;9.828;2023-05-07T04:23:23;10.60;99.90
54409;DHT22;40315;48.620;9.828;2023-05-07T04:25:51;10.60;99.90
54409;DHT22;40315;48.620;9.828;2023-05-07T04:28:40;10.60;99.90
54409;DHT22;40315;48.620;9.828;2023-05-07T04:31:07;10.60;99.90
54409;DHT22;40315;48.620;9.828;2023-05-07T04:33:36;10.70;99.90
54409;DHT22;40315;48.620;9.828;2023-05-07T04:36:07;10.70;99.90
54409;DHT22;40315;48.620;9.828;2023-05-07T04:38:41;10.60;99.90
54409;DHT22;40315;48.620;9.828;2023-05-07T04:41:09;10.60;99.90
54409;DHT22;40315;48.620;9.828;2023-05-07T04:43:41;10.60;99.90
54409;DHT22;40315;48.620;9.828;2023-05-07T04:46:10;10.60;99.90
54409;DHT22;40315;48.620;9.828;2023-05-07T04:48:37;10.70;99.90
54409;DHT22;40315;48.620;9.828;2023-05-07T04:51:05;10.70;99.90
54409;DHT22;40315;48.620;9.828;2023-05-07T04:53:34;10.80;99.90
54409;DHT22;40315;48.620;9.828;2023-05-07T04:56:02;10.90;99.90
54409;DHT22;40315;48.620;9.828;2023-05-07T04:58:36;11.00;99.90
54409;DHT22;40315;48.620;9.828;2023-05-07T05:01:05;11.20;99.90
54409;DHT22;40315;48.620;9.828;2023-05-07T05:03:32;11.50;99.90
54409;DHT22;40315;48.620;9.828;2023-05-07T05:06:01;11.80;99.90
54409;DHT22;40315;48.620;9.828;2023-05-07T05:08:32;11.90;99.90
54409;DHT22;40315;48.620;9.828;2023-05-07T05:11:01;12.30;99.90
54409;DHT22;40315;48.620;9.828;2023-05-07T05:13:28;12.70;99.90
54409;DHT22;40315;48.620;9.828;2023-05-07T05:15:56;12.80;99.90
54409;DHT22;40315;48.620;9.828;2023-05-07T05:18:26;12.90;99.90
54409;DHT22;40315;48.620;9.828;2023-05-07T05:20:55;13.20;99.90
54409;DHT22;40315;48.620;9.828;2023-05-07T05:23:23;14.00;99.90
54409;DHT22;40315;48.620;9.828;2023-05-07T05:25:55;15.50;99.90
54409;DHT22;40315;48.620;9.828;2023-05-07T05:28:25;17.00;99.90
54409;DHT22;40315;48.620;9.828;2023-05-07T05:30:53;18.50;99.90
54409;DHT22;40315;48.620;9.828;2023-05-07T05:33:22;19.90;99.90
54409;DHT22;40315;48.620;9.828;2023-05-07T05:35:51;20.60;99.90
54409;DHT22;40315;48.620;9.828;2023-05-07T05:38:18;21.00;99.90
54409;DHT22;40315;48.620;9.828;2023-05-07T05:40:47;20.80;99.90
54409;DHT22;40315;48.620;9.828;2023-05-07T05:43:15;20.70;99.90
54409;DHT22;40315;48.620;9.828;2023-05-07T05:45:44;19.90;99.90
54409;DHT22;40315;48.620;9.828;2023-05-07T05:48:11;19.60;99.90
54409;DHT22;40315;48.620;9.828;2023-05-07T05:50:38;19.10;99.90
54409;DHT22;40315;48.620;9.828;2023-05-07T05:53:09;19.10;99.90
54409;DHT22;40315;48.620;9.828;2023-05-07T05:55:36;19.60;99.90
54409;DHT22;40315;48.620;9.828;2023-05-07T05:58:04;20.30;99.90
54409;DHT22;40315;48.620;9.828;2023-05-07T06:00:35;20.60;99.90
54409;DHT22;40315;48.620;9.828;2023-05-07T06:03:05;20.60;99.90
54409;DHT22;40315;48.620;9.828;2023-05-07T06:05:34;20.80;99.90
54409;DHT22;40315;48.620;9.828;2023-05-07T06:08:04;20.60;99.90
54409;DHT22;40315;48.620;9.828;2023-05-07T06:10:35;20.80;99.90
54409;DHT22;40315;48.620;9.828;2023-05-07T06:13:04;20.70;99.90
54409;DHT22;40315;48.620;9.828;2023-05-07T06:15:35;20.80;99.90
54409;DHT22;40315;48.620;9.828;2023-05-07T06:18:07;21.20;99.90
54409;DHT22;40315;48.620;9.828;2023-05-07T06:20:34;21.40;99.90
54409;DHT22;40315;48.620;9.828;2023-05-07T06:23:04;21.50;99.90
54409;DHT22;40315;48.620;9.828;2023-05-07T06:25:34;21.60;99.90
54409;DHT22;40315;48.620;9.828;2023-05-07T06:28:01;21.70;99.90
54409;DHT22;40315;48.620;9.828;2023-05-07T06:30:29;22.00;99.90
54409;DHT22;40315;48.620;9.828;2023-05-07T06:32:56;22.20;99.90
54409;DHT22;40315;48.620;9.828;2023-05-07T06:35:26;22.40;99.90
54409;DHT22;40315;48.620;9.828;2023-05-07T06:37:53;22.80;99.90
54409;DHT22;40315;48.620;9.828;2023-05-07T06:40:24;23.10;99.90
54409;DHT22;40315;48.620;9.828;2023-05-07T06:42:53;22.80;99.90
54409;DHT22;40315;48.620;9.828;2023-05-07T06:45:32;22.60;99.90
54409;DHT22;40315;48.620;9.828;2023-05-07T06:48:00;22.40;99.90
54409;DHT22;40315;48.620;9.828;2023-05-07T06:50:30;22.50;99.90
54409;DHT22;40315;48.620;9.828;2023-05-07T06:52:58;22.50;99.90
54409;DHT22;40315;48.620;9.828;2023-05-07T06:55:25;22.60;99.90
54409;DHT22;40315;48.620;9.828;2023-05-07T06:57:54;23.00;99.90
54409;DHT22;40315;48.620;9.828;2023-05-07T07:00:25;23.10;99.90
54409;DHT22;40315;48.620;9.828;2023-05-07T07:02:55;23.20;99.90
54409;DHT22;40315;48.620;9.828;2023-05-07T07:05:25;22.70;99.90
54409;DHT22;40315;48.620;9.828;2023-05-07T07:07:52;22.60;99.90
54409;DHT22;40315;48.620;9.828;2023-05-07T07:10:20;22.80;99.90
54409;DHT22;40315;48.620;9.828;2023-05-07T07:12:50;22.80;99.90
54409;DHT22;40315;48.620;9.828;2023-05-07T07:15:20;22.00;99.90
54409;DHT22;40315;48.620;9.828;2023-05-07T07:20:16;22.20;99.90
54409;DHT22;40315;48.620;9.828;2023-05-07T07:22:46;22.40;99.90
54409;DHT22;40315;48.620;9.828;2023-05-07T07:25:15;22.60;99.90
54409;DHT22;40315;48.620;9.828;2023-05-07T07:27:43;22.60;99.90
54409;DHT22;40315;48.620;9.828;2023-05-07T07:30:11;23.20;99.90
54409;DHT22;40315;48.620;9.828;2023-05-07T07:32:42;23.00;99.90
54409;DHT22;40315;48.620;9.828;2023-05-07T07:35:09;22.70;99.90
54409;DHT22;40315;48.620;9.828;2023-05-07T07:37:39;22.30;99.90
54409;DHT22;40315;48.620;9.828;2023-05-07T07:40:07;21.80;99.90
54409;DHT22;40315;48.620;9.828;2023-05-07T07:42:41;21.40;99.90
54409;DHT22;40315;48.620;9.828;2023-05-07T07:45:08;21.10;99.90
54409;DHT22;40315;48.620;9.828;2023-05-07T07:47:40;21.50;99.90
54409;DHT22;40315;48.620;9.828;2023-05-07T07:50:09;21.20;99.90
54409;DHT22;40315;48.620;9.828;2023-05-07T07:52:36;21.50;99.90
54409;DHT22;40315;48.620;9.828;2023-05-07T07:55:05;21.20;99.90
54409;DHT22;40315;48.620;9.828;2023-05-07T07:57:35;20.90;99.90
54409;DHT22;40315;48.620;9.828;2023-05-07T08:00:03;21.20;99.90
54409;DHT22;40315;48.620;9.828;2023-05-07T08:02:42;21.20;99.90
54409;DHT22;40315;48.620;9.828;2023-05-07T08:05:15;21.20;99.90
54409;DHT22;40315;48.620;9.828;2023-05-07T08:07:45;21.00;99.90
54409;DHT22;40315;48.620;9.828;2023-05-07T08:10:18;21.00;99.90
54409;DHT22;40315;48.620;9.828;2023-05-07T08:12:49;21.20;99.90
54409;DHT22;40315;48.620;9.828;2023-05-07T08:15:19;21.40;99.90
54409;DHT22;40315;48.620;9.828;2023-05-07T08:17:48;21.60;99.90
54409;DHT22;40315;48.620;9.828;2023-05-07T08:20:17;21.60;99.90
54409;DHT22;40315;48.620;9.828;2023-05-07T08:22:44;21.70;99.90
54409;DHT22;40315;48.620;9.828;2023-05-07T08:25:11;21.80;99.90
54409;DHT22;40315;48.620;9.828;2023-05-07T08:27:40;21.90;99.90
54409;DHT22;40315;48.620;9.828;2023-05-07T08:30:13;22.10;99.90
54409;DHT22;40315;48.620;9.828;2023-05-07T08:32:40;22.30;99.90
54409;DHT22;40315;48.620;9.828;2023-05-07T08:35:08;22.10;99.90
54409;DHT22;40315;48.620;9.828;2023-05-07T08:37:39;22.10;99.90
54409;DHT22;40315;48.620;9.828;2023-05-07T08:40:07;22.20;99.90
54409;DHT22;40315;48.620;9.828;2023-05-07T08:42:38;22.40;99.90
54409;DHT22;40315;48.620;9.828;2023-05-07T08:45:09;22.30;99.90
54409;DHT22;40315;48.620;9.828;2023-05-07T08:47:43;22.00;99.90
54409;DHT22;40315;48.620;9.828;2023-05-07T08:50:12;22.40;99.90
54409;DHT22;40315;48.620;9.828;2023-05-07T08:52:42;22.90;99.90
54409;DHT22;40315;48.620;9.828;2023-05-07T08:55:10;22.90;99.90
54409;DHT22;40315;48.620;9.828;2023-05-07T08:57:37;22.70;99.90
54409;DHT22;40315;48.620;9.828;2023-05-07T09:00:05;22.90;99.90
54409;DHT22;40315;48.620;9.828;2023-05-07T09:02:35;23.30;99.90
54409;DHT22;40315;48.620;9.828;2023-05-07T09:05:08;23.40;99.90
54409;DHT22;40315;48.620;9.828;2023-05-07T09:07:36;23.30;99.90
54409;DHT22;40315;48.620;9.828;2023-05-07T09:10:09;23.40;99.90
54409;DHT22;40315;48.620;9.828;2023-05-07T09:12:39;23.30;99.90
54409;DHT22;40315;48.620;9.828;2023-05-07T09:15:09;23.30;99.90
54409;DHT22;40315;48.620;9.828;2023-05-07T09:17:38;23.40;99.90
54409;DHT22;40315;48.620;9.828;2023-05-07T09:20:09;23.60;99.90
54409;DHT22;40315;48.620;9.828;2023-05-07T09:22:38;23.30;99.90
54409;DHT22;40315;48.620;9.828;2023-05-07T09:25:10;23.10;99.90
54409;DHT22;40315;48.620;9.828;2023-05-07T09:27:39;23.40;99.90
54409;DHT22;40315;48.620;9.828;2023-05-07T09:30:07;23.50;99.90
54409;DHT22;40315;48.620;9.828;2023-05-07T09:32:36;23.50;99.90
54409;DHT22;40315;48.620;9.828;2023-05-07T09:35:08;23.70;99.90
54409;DHT22;40315;48.620;9.828;2023-05-07T09:37:41;23.70;99.90
54409;DHT22;40315;48.620;9.828;2023-05-07T09:40:21;23.60;99.90
54409;DHT22;40315;48.620;9.828;2023-05-07T09:42:50;23.50;99.90
54409;DHT22;40315;48.620;9.828;2023-05-07T09:45:22;23.50;99.90
54409;DHT22;40315;48.620;9.828;2023-05-07T09:47:54;23.50;99.90
54409;DHT22;40315;48.620;9.828;2023-05-07T09:50:25;23.80;99.90
54409;DHT22;40315;48.620;9.828;2023-05-07T09:52:56;23.90;99.90
54409;DHT22;40315;48.620;9.828;2023-05-07T09:55:28;24.10;99.90
54409;DHT22;40315;48.620;9.828;2023-05-07T09:57:57;24.00;99.90
54409;DHT22;40315;48.620;9.828;2023-05-07T10:00:27;24.00;99.90
54409;DHT22;40315;48.620;9.828;2023-05-07T10:03:04;24.00;99.90
54409;DHT22;40315;48.620;9.828;2023-05-07T10:05:40;24.30;99.90
54409;DHT22;40315;48.620;9.828;2023-05-07T10:08:10;23.90;99.60
54409;DHT22;40315;48.620;9.828;2023-05-07T10:10:41;23.80;99.90
54409;DHT22;40315;48.620;9.828;2023-05-07T10:13:13;23.80;99.90
54409;DHT22;40315;48.620;9.828;2023-05-07T10:15:45;23.70;99.90
54409;DHT22;40315;48.620;9.828;2023-05-07T10:18:13;23.70;99.90
54409;DHT22;40315;48.620;9.828;2023-05-07T10:20:43;23.70;99.90
54409;DHT22;40315;48.620;9.828;2023-05-07T10:23:15;23.80;99.90
54409;DHT22;40315;48.620;9.828;2023-05-07T10:25:48;23.60;98.50
54409;DHT22;40315;48.620;9.828;2023-05-07T10:28:22;23.30;98.90
54409;DHT22;40315;48.620;9.828;2023-05-07T10:30:59;23.30;99.00
54409;DHT22;40315;48.620;9.828;2023-05-07T10:33:37;23.60;99.90
54409;DHT22;40315;48.620;9.828;2023-05-07T10:36:07;24.30;99.90
54409;DHT22;40315;48.620;9.828;2023-05-07T10:38:35;24.40;99.20
54409;DHT22;40315;48.620;9.828;2023-05-07T10:41:06;24.60;99.40
54409;DHT22;40315;48.620;9.828;2023-05-07T10:43:41;24.90;98.60
54409;DHT22;40315;48.620;9.828;2023-05-07T10:46:11;25.00;97.60
54409;DHT22;40315;48.620;9.828;2023-05-07T10:49:06;25.50;97.60
54409;DHT22;40315;48.620;9.828;2023-05-07T10:51:43;25.60;97.90
54409;DHT22;40315;48.620;9.828;2023-05-07T10:54:23;25.60;95.40
54409;DHT22;40315;48.620;9.828;2023-05-07T11:00:43;25.70;95.00
54409;DHT22;40315;48.620;9.828;2023-05-07T11:03:28;25.80;95.10
54409;DHT22;40315;48.620;9.828;2023-05-07T11:06:10;25.60;94.90
54409;DHT22;40315;48.620;9.828;2023-05-07T11:09:00;25.50;93.20
54409;DHT22;40315;48.620;9.828;2023-05-07T11:11:45;25.70;94.00
54409;DHT22;40315;48.620;9.828;2023-05-07T11:14:44;25.40;95.00
54409;DHT22;40315;48.620;9.828;2023-05-07T11:17:18;25.80;94.90
54409;DHT22;40315;48.620;9.828;2023-05-07T11:19:55;25.80;93.40
54409;DHT22;40315;48.620;9.828;2023-05-07T11:22:37;26.00;93.00
54409;DHT22;40315;48.620;9.828;2023-05-07T11:25:25;25.70;93.20
54409;DHT22;40315;48.620;9.828;2023-05-07T11:28:05;25.50;94.20
54409;DHT22;40315;48.620;9.828;2023-05-07T11:30:34;25.80;94.20
54409;DHT22;40315;48.620;9.828;2023-05-07T11:33:04;26.20;93.60
54409;DHT22;40315;48.620;9.828;2023-05-07T11:35:33;26.20;93.30
54409;DHT22;40315;48.620;9.828;2023-05-07T11:38:00;25.80;93.10
54409;DHT22;40315;48.620;9.828;2023-05-07T11:40:31;25.80;93.20
54409;DHT22;40315;48.620;9.828;2023-05-07T11:42:58;26.10;93.80
54409;DHT22;40315;48.620;9.828;2023-05-07T11:45:25;26.20;92.70
54409;DHT22;40315;48.620;9.828;2023-05-07T11:47:53;26.20;93.30
54409;DHT22;40315;48.620;9.828;2023-05-07T11:50:22;26.40;92.50
54409;DHT22;40315;48.620;9.828;2023-05-07T11:52:52;26.40;92.10
54409;DHT22;40315;48.620;9.828;2023-05-07T11:55:19;26.40;92.70
54409;DHT22;40315;48.620;9.828;2023-05-07T11:57:47;26.40;93.50
54409;DHT22;40315;48.620;9.828;2023-05-07T12:00:16;26.60;91.00
54409;DHT22;40315;48.620;9.828;2023-05-07T12:02:45;26.40;92.10
54409;DHT22;40315;48.620;9.828;2023-05-07T12:05:12;26.00;92.10
54409;DHT22;40315;48.620;9.828;2023-05-07T12:07:40;25.40;91.90
54409;DHT22;40315;48.620;9.828;2023-05-07T12:10:08;25.30;93.00
54409;DHT22;40315;48.620;9.828;2023-05-07T12:12:41;25.30;92.80
54409;DHT22;40315;48.620;9.828;2023-05-07T12:15:22;25.30;92.60
54409;DHT22;40315;48.620;9.828;2023-05-07T12:17:50;25.20;92.40
54409;DHT22;40315;48.620;9.828;2023-05-07T12:20:18;25.20;92.60
54409;DHT22;40315;48.620;9.828;2023-05-07T12:22:48;25.30;92.80
54409;DHT22;40315;48.620;9.828;2023-05-07T12:25:19;25.30;93.50
54409;DHT22;40315;48.620;9.828;2023-05-07T12:27:51;25.00;93.20
54409;DHT22;40315;48.620;9.828;2023-05-07T12:30:19;24.90;94.00
54409;DHT22;40315;48.620;9.828;2023-05-07T12:32:46;25.10;94.90
54409;DHT22;40315;48.620;9.828;2023-05-07T12:35:13;24.90;95.10
54409;DHT22;40315;48.620;9.828;2023-05-07T12:37:40;24.90;96.20
54409;DHT22;40315;48.620;9.828;2023-05-07T12:40:11;24.60;97.50
54409;DHT22;40315;48.620;9.828;2023-05-07T12:42:40;24.50;97.80
54409;DHT22;40315;48.620;9.828;2023-05-07T12:45:10;24.20;98.10
54409;DHT22;40315;48.620;9.828;2023-05-07T12:47:38;24.30;98.00
54409;DHT22;40315;48.620;9.828;2023-05-07T12:50:06;24.30;97.20
54409;DHT22;40315;48.620;9.828;2023-05-07T12:52:34;24.40;97.70
54409;DHT22;40315;48.620;9.828;2023-05-07T12:55:06;24.10;97.50
54409;DHT22;40315;48.620;9.828;2023-05-07T12:57:42;23.80;97.80
54409;DHT22;40315;48.620;9.828;2023-05-07T13:00:10;23.80;98.40
54409;DHT22;40315;48.620;9.828;2023-05-07T13:02:38;23.70;99.20
54409;DHT22;40315;48.620;9.828;2023-05-07T13:05:06;23.80;99.70
54409;DHT22;40315;48.620;9.828;2023-05-07T13:07:33;24.00;99.20
54409;DHT22;40315;48.620;9.828;2023-05-07T13:10:00;23.70;99.50
54409;DHT22;40315;48.620;9.828;2023-05-07T13:12:28;23.50;99.90
54409;DHT22;40315;48.620;9.828;2023-05-07T13:14:56;23.50;99.90
54409;DHT22;40315;48.620;9.828;2023-05-07T13:17:27;23.50;99.80
54409;DHT22;40315;48.620;9.828;2023-05-07T13:19:54;23.40;99.70
54409;DHT22;40315;48.620;9.828;2023-05-07T13:22:21;23.40;99.90
54409;DHT22;40315;48.620;9.828;2023-05-07T13:24:48;23.30;99.90
54409;DHT22;40315;48.620;9.828;2023-05-07T13:27:16;23.20;99.90
54409;DHT22;40315;48.620;9.828;2023-05-07T13:29:44;23.10;99.90
54409;DHT22;40315;48.620;9.828;2023-05-07T13:32:13;23.10;99.90
54409;DHT22;40315;48.620;9.828;2023-05-07T13:34:43;23.10;99.90
54409;DHT22;40315;48.620;9.828;2023-05-07T13:37:10;23.00;99.90
54409;DHT22;40315;48.620;9.828;2023-05-07T13:39:37;22.80;99.90
54409;DHT22;40315;48.620;9.828;2023-05-07T13:42:04;22.80;99.90
54409;DHT22;40315;48.620;9.828;2023-05-07T13:44:31;21.40;99.90
54409;DHT22;40315;48.620;9.828;2023-05-07T13:46:59;22.80;99.90
54409;DHT22;40315;48.620;9.828;2023-05-07T13:49:28;22.60;99.90
54409;DHT22;40315;48.620;9.828;2023-05-07T13:51:55;22.50;99.90
54409;DHT22;40315;48.620;9.828;2023-05-07T13:54:22;22.40;99.90
54409;DHT22;40315;48.620;9.828;2023-05-07T13:56:49;22.30;99.90
54409;DHT22;40315;48.620;9.828;2023-05-07T13:59:16;22.30;99.90
54409;DHT22;40315;48.620;9.828;2023-05-07T14:01:44;22.40;99.90
54409;DHT22;40315;48.620;9.828;2023-05-07T14:04:11;22.50;99.90
54409;DHT22;40315;48.620;9.828;2023-05-07T14:09:06;22.40;99.90
54409;DHT22;40315;48.620;9.828;2023-05-07T14:11:36;22.20;99.90
54409;DHT22;40315;48.620;9.828;2023-05-07T14:14:03;22.20;99.90
54409;DHT22;40315;48.620;9.828;2023-05-07T14:16:32;22.20;99.90
54409;DHT22;40315;48.620;9.828;2023-05-07T14:18:59;22.10;99.90
54409;DHT22;40315;48.620;9.828;2023-05-07T14:21:26;22.10;99.90
54409;DHT22;40315;48.620;9.828;2023-05-07T14:26:25;22.10;99.90
54409;DHT22;40315;48.620;9.828;2023-05-07T14:28:55;22.10;99.90
54409;DHT22;40315;48.620;9.828;2023-05-07T14:31:24;22.00;99.90
54409;DHT22;40315;48.620;9.828;2023-05-07T14:33:53;21.90;99.90
54409;DHT22;40315;48.620;9.828;2023-05-07T14:36:20;21.90;99.90
54409;DHT22;40315;48.620;9.828;2023-05-07T14:38:48;21.80;99.90
54409;DHT22;40315;48.620;9.828;2023-05-07T14:41:17;21.80;99.90
54409;DHT22;40315;48.620;9.828;2023-05-07T14:43:44;21.70;99.90
54409;DHT22;40315;48.620;9.828;2023-05-07T14:46:16;21.80;99.90
54409;DHT22;40315;48.620;9.828;2023-05-07T14:48:44;21.80;99.90
54409;DHT22;40315;48.620;9.828;2023-05-07T14:51:14;21.70;99.90
54409;DHT22;40315;48.620;9.828;2023-05-07T14:53:42;21.50;99.90
54409;DHT22;40315;48.620;9.828;2023-05-07T14:56:09;20.20;99.90
54409;DHT22;40315;48.620;9.828;2023-05-07T14:58:38;19.50;99.90
54409;DHT22;40315;48.620;9.828;2023-05-07T15:01:06;19.00;99.90
54409;DHT22;40315;48.620;9.828;2023-05-07T15:03:34;18.70;99.90
54409;DHT22;40315;48.620;9.828;2023-05-07T15:06:01;18.20;99.90
54409;DHT22;40315;48.620;9.828;2023-05-07T15:08:29;17.80;99.90
54409;DHT22;40315;48.620;9.828;2023-05-07T15:10:56;17.60;99.90
54409;DHT22;40315;48.620;9.828;2023-05-07T15:13:24;17.70;99.90
54409;DHT22;40315;48.620;9.828;2023-05-07T15:15:52;17.60;99.90
54409;DHT22;40315;48.620;9.828;2023-05-07T15:18:21;17.50;99.90
54409;DHT22;40315;48.620;9.828;2023-05-07T15:20:48;17.40;99.90
54409;DHT22;40315;48.620;9.828;2023-05-07T15:23:18;17.20;99.90
54409;DHT22;40315;48.620;9.828;2023-05-07T15:25:48;17.30;99.90
54409;DHT22;40315;48.620;9.828;2023-05-07T15:28:16;17.20;99.90
54409;DHT22;40315;48.620;9.828;2023-05-07T15:30:45;17.10;99.90
54409;DHT22;40315;48.620;9.828;2023-05-07T15:33:14;16.90;99.90
54409;DHT22;40315;48.620;9.828;2023-05-07T15:35:41;16.60;99.90
54409;DHT22;40315;48.620;9.828;2023-05-07T15:38:08;16.70;99.90
54409;DHT22;40315;48.620;9.828;2023-05-07T15:40:35;16.80;99.90
54409;DHT22;40315;48.620;9.828;2023-05-07T15:43:08;17.00;99.90
54409;DHT22;40315;48.620;9.828;2023-05-07T15:45:38;16.90;99.90
54409;DHT22;40315;48.620;9.828;2023-05-07T15:48:06;16.50;99.90
54409;DHT22;40315;48.620;9.828;2023-05-07T15:50:34;16.50;99.90
54409;DHT22;40315;48.620;9.828;2023-05-07T15:53:02;16.50;99.90
54409;DHT22;40315;48.620;9.828;2023-05-07T15:57:57;16.60;99.90
54409;DHT22;40315;48.620;9.828;2023-05-07T16:00:26;16.70;99.90
54409;DHT22;40315;48.620;9.828;2023-05-07T16:02:54;16.70;99.90
54409;DHT22;40315;48.620;9.828;2023-05-07T16:05:21;16.40;99.90